sensor_id;sensor_type;location;lat;lon;timestamp;pressure;altitude;pressure_sealevel;temperature;humidity
79639;BME280;69114;49.108;8.280;2023-08-20T00:01:49;100731.50;;;22.74;89.44
79639;BME280;69114;49.108;8.280;2023-08-20T00:04:18;100731.47;;;22.70;89.71
79639;BME280;69114;49.108;8.280;2023-08-20T00:06:44;100731.41;;;22.67;89.45
79639;BME280;69114;49.108;8.280;2023-08-20T00:09:11;100734.97;;;22.60;89.82
79639;BME280;69114;49.108;8.280;2023-08-20T00:11:36;100734.44;;;22.51;90.34
79639;BME280;69114;49.108;8.280;2023-08-20T00:14:02;100731.97;;;22.49;90.25
79639;BME280;69114;49.108;8.280;2023-08-20T00:16:31;100732.75;;;22.46;90.38
79639;BME280;69114;49.108;8.280;2023-08-20T00:18:57;100735.94;;;22.41;90.72
79639;BME280;69114;49.108;8.280;2023-08-20T00:21:23;100739.59;;;22.42;90.54
79639;BME280;69114;49.108;8.280;2023-08-20T00:23:48;100736.78;;;22.45;90.16
79639;BME280;69114;49.108;8.280;2023-08-20T00:26:14;100744.00;;;22.39;90.46
79639;BME280;69114;49.108;8.280;2023-08-20T00:28:39;100745.94;;;22.32;91.00
79639;BME280;69114;49.108;8.280;2023-08-20T00:31:05;100740.59;;;22.30;90.88
79639;BME280;69114;49.108;8.280;2023-08-20T00:33:31;100742.91;;;22.21;91.17
79639;BME280;69114;49.108;8.280;2023-08-20T00:35:57;100739.50;;;22.12;91.67
79639;BME280;69114;49.108;8.280;2023-08-20T00:38:22;100742.00;;;22.13;91.31
79639;BME280;69114;49.108;8.280;2023-08-20T00:40:48;100743.53;;;22.11;91.58
79639;BME280;69114;49.108;8.280;2023-08-20T00:43:13;100745.19;;;22.12;91.49
79639;BME280;69114;49.108;8.280;2023-08-20T00:45:42;100743.84;;;22.06;91.73
79639;BME280;69114;49.108;8.280;2023-08-20T00:48:08;100751.53;;;22.05;91.40
79639;BME280;69114;49.108;8.280;2023-08-20T00:50:33;100749.53;;;22.06;91.48
79639;BME280;69114;49.108;8.280;2023-08-20T00:53:02;100751.13;;;22.03;91.44
79639;BME280;69114;49.108;8.280;2023-08-20T00:55:28;100748.16;;;21.96;91.86
79639;BME280;69114;49.108;8.280;2023-08-20T00:57:54;100751.31;;;21.91;92.28
79639;BME280;69114;49.108;8.280;2023-08-20T01:00:20;100750.50;;;21.90;91.94
79639;BME280;69114;49.108;8.280;2023-08-20T01:02:48;100753.66;;;21.85;92.15
79639;BME280;69114;49.108;8.280;2023-08-20T01:05:14;100755.22;;;21.83;92.00
79639;BME280;69114;49.108;8.280;2023-08-20T01:08:02;100751.16;;;21.84;92.14
79639;BME280;69114;49.108;8.280;2023-08-20T01:13:01;100758.28;;;21.74;92.33
79639;BME280;69114;49.108;8.280;2023-08-20T01:15:27;100752.94;;;21.69;92.60
79639;BME280;69114;49.108;8.280;2023-08-20T01:17:52;100744.31;;;21.62;92.41
79639;BME280;69114;49.108;8.280;2023-08-20T01:20:18;100750.66;;;21.55;91.92
79639;BME280;69114;49.108;8.280;2023-08-20T01:22:59;100746.06;;;21.47;92.34
79639;BME280;69114;49.108;8.280;2023-08-20T01:26:15;100752.94;;;21.46;92.17
79639;BME280;69114;49.108;8.280;2023-08-20T01:28:46;100748.03;;;21.43;92.46
79639;BME280;69114;49.108;8.280;2023-08-20T01:31:12;100751.97;;;21.38;93.15
79639;BME280;69114;49.108;8.280;2023-08-20T01:33:41;100752.28;;;21.33;93.34
79639;BME280;69114;49.108;8.280;2023-08-20T01:36:07;100757.41;;;21.28;93.47
79639;BME280;69114;49.108;8.280;2023-08-20T01:38:37;100755.25;;;21.21;93.46
79639;BME280;69114;49.108;8.280;2023-08-20T01:41:03;100758.91;;;21.21;93.62
79639;BME280;69114;49.108;8.280;2023-08-20T01:43:28;100758.84;;;21.18;93.97
79639;BME280;69114;49.108;8.280;2023-08-20T01:45:54;100758.69;;;21.11;94.30
79639;BME280;69114;49.108;8.280;2023-08-20T01:48:19;100763.03;;;21.05;94.50
79639;BME280;69114;49.108;8.280;2023-08-20T01:50:44;100764.06;;;20.96;94.88
79639;BME280;69114;49.108;8.280;2023-08-20T01:53:11;100770.75;;;20.88;95.22
79639;BME280;69114;49.108;8.280;2023-08-20T01:55:37;100760.53;;;20.84;95.15
79639;BME280;69114;49.108;8.280;2023-08-20T01:58:02;100758.38;;;20.77;95.69
79639;BME280;69114;49.108;8.280;2023-08-20T02:00:28;100762.13;;;20.81;95.71
79639;BME280;69114;49.108;8.280;2023-08-20T02:02:53;100751.53;;;20.78;95.39
79639;BME280;69114;49.108;8.280;2023-08-20T02:05:19;100747.03;;;20.58;96.42
79639;BME280;69114;49.108;8.280;2023-08-20T02:07:44;100751.88;;;20.57;96.78
79639;BME280;69114;49.108;8.280;2023-08-20T02:10:10;100749.88;;;20.58;96.95
79639;BME280;69114;49.108;8.280;2023-08-20T02:12:35;100737.06;;;20.64;96.46
79639;BME280;69114;49.108;8.280;2023-08-20T02:15:01;100735.13;;;20.68;96.01
79639;BME280;69114;49.108;8.280;2023-08-20T02:17:28;100743.41;;;20.77;95.61
79639;BME280;69114;49.108;8.280;2023-08-20T02:19:53;100747.66;;;20.86;94.71
79639;BME280;69114;49.108;8.280;2023-08-20T02:22:19;100743.72;;;20.91;93.66
79639;BME280;69114;49.108;8.280;2023-08-20T02:24:46;100755.44;;;20.89;93.55
79639;BME280;69114;49.108;8.280;2023-08-20T02:27:11;100749.28;;;20.87;93.51
79639;BME280;69114;49.108;8.280;2023-08-20T02:29:36;100751.16;;;20.80;93.95
79639;BME280;69114;49.108;8.280;2023-08-20T02:32:02;100748.16;;;20.73;94.36
79639;BME280;69114;49.108;8.280;2023-08-20T02:34:27;100745.63;;;20.67;94.34
79639;BME280;69114;49.108;8.280;2023-08-20T02:36:52;100735.88;;;20.65;94.57
79639;BME280;69114;49.108;8.280;2023-08-20T02:39:18;100738.56;;;20.58;95.07
79639;BME280;69114;49.108;8.280;2023-08-20T02:41:43;100735.09;;;20.49;95.17
79639;BME280;69114;49.108;8.280;2023-08-20T02:44:09;100745.41;;;20.57;94.70
79639;BME280;69114;49.108;8.280;2023-08-20T02:46:34;100751.97;;;20.61;94.69
79639;BME280;69114;49.108;8.280;2023-08-20T02:49:00;100755.63;;;20.61;94.75
79639;BME280;69114;49.108;8.280;2023-08-20T02:51:25;100755.09;;;20.56;94.77
79639;BME280;69114;49.108;8.280;2023-08-20T02:53:50;100744.78;;;20.48;94.95
79639;BME280;69114;49.108;8.280;2023-08-20T02:56:16;100743.03;;;20.43;95.66
79639;BME280;69114;49.108;8.280;2023-08-20T02:58:41;100729.53;;;20.36;95.46
79639;BME280;69114;49.108;8.280;2023-08-20T03:01:06;100727.81;;;20.32;95.65
79639;BME280;69114;49.108;8.280;2023-08-20T03:03:32;100732.22;;;20.29;95.67
79639;BME280;69114;49.108;8.280;2023-08-20T03:05:57;100739.06;;;20.28;96.16
79639;BME280;69114;49.108;8.280;2023-08-20T03:08:23;100745.44;;;20.25;96.47
79639;BME280;69114;49.108;8.280;2023-08-20T03:10:48;100743.34;;;20.22;96.82
79639;BME280;69114;49.108;8.280;2023-08-20T03:13:13;100736.53;;;20.23;96.87
79639;BME280;69114;49.108;8.280;2023-08-20T03:15:39;100739.34;;;20.23;96.87
79639;BME280;69114;49.108;8.280;2023-08-20T03:18:05;100744.53;;;20.21;97.03
79639;BME280;69114;49.108;8.280;2023-08-20T03:20:30;100738.44;;;20.19;97.16
79639;BME280;69114;49.108;8.280;2023-08-20T03:22:57;100747.75;;;20.19;97.26
79639;BME280;69114;49.108;8.280;2023-08-20T03:25:22;100743.72;;;20.20;97.20
79639;BME280;69114;49.108;8.280;2023-08-20T03:27:48;100743.28;;;20.18;97.10
79639;BME280;69114;49.108;8.280;2023-08-20T03:30:13;100753.03;;;20.21;96.55
79639;BME280;69114;49.108;8.280;2023-08-20T03:32:38;100757.34;;;20.15;96.65
79639;BME280;69114;49.108;8.280;2023-08-20T03:35:04;100756.59;;;20.18;96.32
79639;BME280;69114;49.108;8.280;2023-08-20T03:37:29;100763.00;;;20.15;96.26
79639;BME280;69114;49.108;8.280;2023-08-20T03:39:55;100763.25;;;20.10;96.29
79639;BME280;69114;49.108;8.280;2023-08-20T03:42:20;100759.63;;;20.09;96.34
79639;BME280;69114;49.108;8.280;2023-08-20T03:44:45;100753.16;;;20.09;96.66
79639;BME280;69114;49.108;8.280;2023-08-20T03:47:11;100749.13;;;20.10;96.81
79639;BME280;69114;49.108;8.280;2023-08-20T03:49:37;100742.66;;;20.09;96.75
79639;BME280;69114;49.108;8.280;2023-08-20T03:52:03;100744.19;;;20.07;97.00
79639;BME280;69114;49.108;8.280;2023-08-20T03:54:29;100754.03;;;20.13;96.92
79639;BME280;69114;49.108;8.280;2023-08-20T03:56:55;100761.16;;;20.23;96.24
79639;BME280;69114;49.108;8.280;2023-08-20T03:59:20;100771.28;;;20.24;95.81
79639;BME280;69114;49.108;8.280;2023-08-20T04:01:45;100760.59;;;20.17;96.04
79639;BME280;69114;49.108;8.280;2023-08-20T04:04:11;100754.94;;;20.17;96.67
79639;BME280;69114;49.108;8.280;2023-08-20T04:06:36;100746.00;;;20.15;96.91
79639;BME280;69114;49.108;8.280;2023-08-20T04:09:01;100743.56;;;20.13;96.48
79639;BME280;69114;49.108;8.280;2023-08-20T04:11:27;100741.38;;;20.07;96.31
79639;BME280;69114;49.108;8.280;2023-08-20T04:13:52;100746.59;;;20.05;96.15
79639;BME280;69114;49.108;8.280;2023-08-20T04:16:17;100758.91;;;19.97;96.63
79639;BME280;69114;49.108;8.280;2023-08-20T04:18:43;100759.16;;;19.91;96.61
79639;BME280;69114;49.108;8.280;2023-08-20T04:21:08;100757.53;;;19.90;96.88
79639;BME280;69114;49.108;8.280;2023-08-20T04:23:33;100752.25;;;20.05;96.45
79639;BME280;69114;49.108;8.280;2023-08-20T04:25:59;100763.25;;;20.10;96.10
79639;BME280;69114;49.108;8.280;2023-08-20T04:28:24;100767.72;;;20.11;95.54
79639;BME280;69114;49.108;8.280;2023-08-20T04:30:54;100773.22;;;20.04;95.64
79639;BME280;69114;49.108;8.280;2023-08-20T04:33:20;100776.31;;;19.99;96.09
79639;BME280;69114;49.108;8.280;2023-08-20T04:35:46;100777.06;;;19.95;96.06
79639;BME280;69114;49.108;8.280;2023-08-20T04:38:11;100782.16;;;19.90;96.36
79639;BME280;69114;49.108;8.280;2023-08-20T04:40:37;100781.44;;;20.09;95.62
79639;BME280;69114;49.108;8.280;2023-08-20T04:43:02;100775.13;;;20.15;95.31
79639;BME280;69114;49.108;8.280;2023-08-20T04:45:28;100779.69;;;20.20;94.90
79639;BME280;69114;49.108;8.280;2023-08-20T04:47:53;100774.84;;;20.20;94.97
79639;BME280;69114;49.108;8.280;2023-08-20T04:50:18;100782.69;;;20.27;94.35
79639;BME280;69114;49.108;8.280;2023-08-20T04:52:44;100778.19;;;20.26;94.61
79639;BME280;69114;49.108;8.280;2023-08-20T04:55:09;100786.69;;;20.26;94.52
79639;BME280;69114;49.108;8.280;2023-08-20T04:57:34;100787.22;;;20.32;94.28
79639;BME280;69114;49.108;8.280;2023-08-20T05:00:00;100790.97;;;20.36;94.25
79639;BME280;69114;49.108;8.280;2023-08-20T05:02:25;100789.78;;;20.37;93.91
79639;BME280;69114;49.108;8.280;2023-08-20T05:04:54;100783.66;;;20.35;94.17
79639;BME280;69114;49.108;8.280;2023-08-20T05:07:19;100792.06;;;20.31;94.12
79639;BME280;69114;49.108;8.280;2023-08-20T05:09:45;100791.63;;;20.29;94.38
79639;BME280;69114;49.108;8.280;2023-08-20T05:12:10;100795.06;;;20.38;94.22
79639;BME280;69114;49.108;8.280;2023-08-20T05:14:36;100795.22;;;20.45;94.36
79639;BME280;69114;49.108;8.280;2023-08-20T05:17:01;100794.34;;;20.41;94.22
79639;BME280;69114;49.108;8.280;2023-08-20T05:19:27;100790.13;;;20.35;94.99
79639;BME280;69114;49.108;8.280;2023-08-20T05:21:53;100792.69;;;20.40;94.93
79639;BME280;69114;49.108;8.280;2023-08-20T05:24:24;100791.72;;;20.49;95.03
79639;BME280;69114;49.108;8.280;2023-08-20T05:29:31;100807.63;;;20.73;94.19
79639;BME280;69114;49.108;8.280;2023-08-20T05:31:56;100806.44;;;20.93;92.91
79639;BME280;69114;49.108;8.280;2023-08-20T05:34:22;100812.22;;;21.16;91.77
79639;BME280;69114;49.108;8.280;2023-08-20T05:36:47;100811.59;;;21.26;91.30
79639;BME280;69114;49.108;8.280;2023-08-20T05:39:12;100810.03;;;21.29;91.39
79639;BME280;69114;49.108;8.280;2023-08-20T05:41:37;100821.63;;;21.39;90.93
79639;BME280;69114;49.108;8.280;2023-08-20T05:44:03;100813.88;;;21.56;89.53
79639;BME280;69114;49.108;8.280;2023-08-20T05:46:28;100824.34;;;21.55;90.33
79639;BME280;69114;49.108;8.280;2023-08-20T05:48:54;100830.09;;;21.59;90.25
79639;BME280;69114;49.108;8.280;2023-08-20T05:51:19;100813.16;;;21.62;89.73
79639;BME280;69114;49.108;8.280;2023-08-20T05:53:44;100828.34;;;21.73;89.16
79639;BME280;69114;49.108;8.280;2023-08-20T05:56:10;100823.16;;;21.76;88.43
79639;BME280;69114;49.108;8.280;2023-08-20T05:58:35;100825.59;;;21.77;89.05
79639;BME280;69114;49.108;8.280;2023-08-20T06:01:00;100834.09;;;21.77;88.87
79639;BME280;69114;49.108;8.280;2023-08-20T06:03:26;100837.84;;;21.81;88.33
79639;BME280;69114;49.108;8.280;2023-08-20T06:05:51;100830.53;;;21.80;87.73
79639;BME280;69114;49.108;8.280;2023-08-20T06:08:16;100837.09;;;21.84;87.29
79639;BME280;69114;49.108;8.280;2023-08-20T06:10:42;100831.34;;;21.81;87.00
79639;BME280;69114;49.108;8.280;2023-08-20T06:13:07;100846.34;;;21.81;87.30
79639;BME280;69114;49.108;8.280;2023-08-20T06:15:32;100833.78;;;21.82;87.06
79639;BME280;69114;49.108;8.280;2023-08-20T06:17:57;100834.25;;;21.84;87.02
79639;BME280;69114;49.108;8.280;2023-08-20T06:20:23;100842.69;;;21.81;88.07
79639;BME280;69114;49.108;8.280;2023-08-20T06:22:48;100834.75;;;21.90;87.70
79639;BME280;69114;49.108;8.280;2023-08-20T06:25:14;100846.91;;;21.90;87.88
79639;BME280;69114;49.108;8.280;2023-08-20T06:27:41;100848.06;;;22.09;86.93
79639;BME280;69114;49.108;8.280;2023-08-20T06:30:06;100847.53;;;22.22;86.90
79639;BME280;69114;49.108;8.280;2023-08-20T06:32:32;100843.81;;;22.45;85.70
79639;BME280;69114;49.108;8.280;2023-08-20T06:34:57;100846.63;;;22.68;84.40
79639;BME280;69114;49.108;8.280;2023-08-20T06:37:23;100849.34;;;22.87;83.91
79639;BME280;69114;49.108;8.280;2023-08-20T06:39:48;100845.31;;;22.88;82.41
79639;BME280;69114;49.108;8.280;2023-08-20T06:42:13;100846.59;;;22.91;82.27
79639;BME280;69114;49.108;8.280;2023-08-20T06:44:39;100846.25;;;22.96;80.84
79639;BME280;69114;49.108;8.280;2023-08-20T06:47:04;100850.03;;;23.04;81.02
79639;BME280;69114;49.108;8.280;2023-08-20T06:49:29;100855.56;;;23.23;80.91
79639;BME280;69114;49.108;8.280;2023-08-20T06:51:55;100853.97;;;23.25;79.48
79639;BME280;69114;49.108;8.280;2023-08-20T06:54:20;100856.47;;;23.31;78.66
79639;BME280;69114;49.108;8.280;2023-08-20T06:59:20;100850.44;;;23.36;77.94
79639;BME280;69114;49.108;8.280;2023-08-20T07:01:45;100859.94;;;23.47;77.83
79639;BME280;69114;49.108;8.280;2023-08-20T07:04:11;100864.34;;;23.44;78.19
79639;BME280;69114;49.108;8.280;2023-08-20T07:06:38;100857.56;;;23.52;77.67
79639;BME280;69114;49.108;8.280;2023-08-20T07:09:04;100860.81;;;23.55;76.99
79639;BME280;69114;49.108;8.280;2023-08-20T07:11:29;100866.03;;;23.45;77.32
79639;BME280;69114;49.108;8.280;2023-08-20T07:13:54;100868.34;;;23.36;77.07
79639;BME280;69114;49.108;8.280;2023-08-20T07:16:20;100867.66;;;23.46;76.57
79639;BME280;69114;49.108;8.280;2023-08-20T07:18:45;100870.00;;;23.71;76.34
79639;BME280;69114;49.108;8.280;2023-08-20T07:21:10;100867.56;;;23.73;75.78
79639;BME280;69114;49.108;8.280;2023-08-20T07:23:36;100869.75;;;23.87;75.45
79639;BME280;69114;49.108;8.280;2023-08-20T07:26:09;100882.34;;;23.86;75.63
79639;BME280;69114;49.108;8.280;2023-08-20T07:31:26;100879.16;;;23.91;75.91
79639;BME280;69114;49.108;8.280;2023-08-20T07:33:53;100878.47;;;24.05;74.74
79639;BME280;69114;49.108;8.280;2023-08-20T07:36:19;100876.13;;;24.14;74.61
79639;BME280;69114;49.108;8.280;2023-08-20T07:38:46;100884.72;;;24.17;73.50
79639;BME280;69114;49.108;8.280;2023-08-20T07:41:12;100876.00;;;24.40;74.16
79639;BME280;69114;49.108;8.280;2023-08-20T07:43:38;100880.97;;;24.50;72.48
79639;BME280;69114;49.108;8.280;2023-08-20T07:46:05;100881.47;;;24.63;72.44
79639;BME280;69114;49.108;8.280;2023-08-20T07:48:30;100879.09;;;24.69;72.10
79639;BME280;69114;49.108;8.280;2023-08-20T07:50:55;100880.75;;;24.77;72.36
79639;BME280;69114;49.108;8.280;2023-08-20T07:53:21;100882.56;;;25.07;71.50
79639;BME280;69114;49.108;8.280;2023-08-20T07:55:46;100883.97;;;25.34;71.71
79639;BME280;69114;49.108;8.280;2023-08-20T07:58:12;100884.47;;;25.50;70.57
79639;BME280;69114;49.108;8.280;2023-08-20T08:00:37;100891.41;;;25.53;68.38
79639;BME280;69114;49.108;8.280;2023-08-20T08:03:02;100890.97;;;25.47;68.79
79639;BME280;69114;49.108;8.280;2023-08-20T08:05:28;100886.00;;;25.26;68.78
79639;BME280;69114;49.108;8.280;2023-08-20T08:07:54;100891.31;;;25.35;69.59
79639;BME280;69114;49.108;8.280;2023-08-20T08:10:19;100886.16;;;25.66;69.28
79639;BME280;69114;49.108;8.280;2023-08-20T08:12:45;100887.06;;;25.91;68.72
79639;BME280;69114;49.108;8.280;2023-08-20T08:15:11;100883.44;;;26.09;66.13
79639;BME280;69114;49.108;8.280;2023-08-20T08:17:36;100888.78;;;26.21;66.36
79639;BME280;69114;49.108;8.280;2023-08-20T08:20:01;100883.88;;;26.25;66.51
79639;BME280;69114;49.108;8.280;2023-08-20T08:22:28;100900.19;;;26.14;67.08
79639;BME280;69114;49.108;8.280;2023-08-20T08:24:53;100894.50;;;26.21;66.39
79639;BME280;69114;49.108;8.280;2023-08-20T08:27:18;100892.81;;;25.98;66.51
79639;BME280;69114;49.108;8.280;2023-08-20T08:29:44;100897.75;;;26.34;65.91
79639;BME280;69114;49.108;8.280;2023-08-20T08:32:10;100896.97;;;26.40;65.45
79639;BME280;69114;49.108;8.280;2023-08-20T08:34:35;100902.69;;;26.47;64.90
79639;BME280;69114;49.108;8.280;2023-08-20T08:37:01;100892.50;;;26.53;64.72
79639;BME280;69114;49.108;8.280;2023-08-20T08:39:26;100900.22;;;26.21;65.84
79639;BME280;69114;49.108;8.280;2023-08-20T08:41:55;100898.16;;;26.39;64.61
79639;BME280;69114;49.108;8.280;2023-08-20T08:44:27;100892.91;;;26.59;63.51
79639;BME280;69114;49.108;8.280;2023-08-20T08:46:53;100894.50;;;26.96;63.49
79639;BME280;69114;49.108;8.280;2023-08-20T08:49:18;100892.84;;;27.20;63.30
79639;BME280;69114;49.108;8.280;2023-08-20T08:51:45;100905.38;;;27.62;61.96
79639;BME280;69114;49.108;8.280;2023-08-20T08:54:12;100900.94;;;27.46;62.38
79639;BME280;69114;49.108;8.280;2023-08-20T08:56:38;100900.88;;;27.61;61.80
79639;BME280;69114;49.108;8.280;2023-08-20T08:59:04;100903.41;;;27.41;61.12
79639;BME280;69114;49.108;8.280;2023-08-20T09:01:30;100898.59;;;26.98;62.28
79639;BME280;69114;49.108;8.280;2023-08-20T09:03:56;100899.41;;;27.17;62.58
79639;BME280;69114;49.108;8.280;2023-08-20T09:06:21;100901.66;;;27.72;62.10
79639;BME280;69114;49.108;8.280;2023-08-20T09:08:47;100908.13;;;27.87;62.65
79639;BME280;69114;49.108;8.280;2023-08-20T09:11:12;100903.06;;;28.16;61.34
79639;BME280;69114;49.108;8.280;2023-08-20T09:13:39;100898.44;;;28.36;61.11
79639;BME280;69114;49.108;8.280;2023-08-20T09:16:06;100901.78;;;28.24;57.85
79639;BME280;69114;49.108;8.280;2023-08-20T09:18:33;100904.91;;;28.47;58.48
79639;BME280;69114;49.108;8.280;2023-08-20T09:21:06;100906.88;;;28.57;57.45
79639;BME280;69114;49.108;8.280;2023-08-20T09:23:32;100902.94;;;28.37;57.09
79639;BME280;69114;49.108;8.280;2023-08-20T09:26:01;100900.50;;;28.32;55.53
79639;BME280;69114;49.108;8.280;2023-08-20T09:28:27;100901.91;;;28.62;56.35
79639;BME280;69114;49.108;8.280;2023-08-20T09:30:56;100905.88;;;28.78;55.49
79639;BME280;69114;49.108;8.280;2023-08-20T09:33:22;100912.22;;;29.00;56.61
79639;BME280;69114;49.108;8.280;2023-08-20T09:35:51;100911.53;;;28.86;57.38
79639;BME280;69114;49.108;8.280;2023-08-20T09:38:19;100906.44;;;29.07;56.27
79639;BME280;69114;49.108;8.280;2023-08-20T09:40:49;100906.25;;;29.25;55.77
79639;BME280;69114;49.108;8.280;2023-08-20T09:43:19;100905.50;;;29.55;54.64
79639;BME280;69114;49.108;8.280;2023-08-20T09:45:47;100906.19;;;29.67;54.71
79639;BME280;69114;49.108;8.280;2023-08-20T09:48:18;100909.34;;;29.76;54.57
79639;BME280;69114;49.108;8.280;2023-08-20T09:50:47;100907.34;;;29.73;54.95
79639;BME280;69114;49.108;8.280;2023-08-20T09:53:27;100903.88;;;29.85;55.14
79639;BME280;69114;49.108;8.280;2023-08-20T09:56:03;100898.97;;;30.16;52.98
79639;BME280;69114;49.108;8.280;2023-08-20T09:58:35;100898.94;;;30.43;52.90
79639;BME280;69114;49.108;8.280;2023-08-20T10:01:02;100898.25;;;30.05;53.17
79639;BME280;69114;49.108;8.280;2023-08-20T10:03:27;100897.72;;;30.17;53.34
79639;BME280;69114;49.108;8.280;2023-08-20T10:05:54;100900.03;;;30.26;51.66
79639;BME280;69114;49.108;8.280;2023-08-20T10:08:21;100893.56;;;30.45;53.75
79639;BME280;69114;49.108;8.280;2023-08-20T10:10:47;100894.94;;;30.88;52.38
79639;BME280;69114;49.108;8.280;2023-08-20T10:13:13;100884.81;;;30.52;51.59
79639;BME280;69114;49.108;8.280;2023-08-20T10:15:39;100892.63;;;30.79;51.30
79639;BME280;69114;49.108;8.280;2023-08-20T10:18:07;100884.00;;;30.79;51.55
79639;BME280;69114;49.108;8.280;2023-08-20T10:20:33;100884.59;;;30.90;50.36
79639;BME280;69114;49.108;8.280;2023-08-20T10:23:02;100882.78;;;31.00;49.79
79639;BME280;69114;49.108;8.280;2023-08-20T10:25:29;100874.53;;;31.22;50.52
79639;BME280;69114;49.108;8.280;2023-08-20T10:28:11;100869.41;;;31.33;48.77
79639;BME280;69114;49.108;8.280;2023-08-20T10:30:36;100873.84;;;31.38;49.70
79639;BME280;69114;49.108;8.280;2023-08-20T10:33:02;100867.97;;;31.81;47.21
79639;BME280;69114;49.108;8.280;2023-08-20T10:35:48;100881.78;;;31.70;47.69
79639;BME280;69114;49.108;8.280;2023-08-20T10:38:16;100871.69;;;31.42;47.60
79639;BME280;69114;49.108;8.280;2023-08-20T10:40:56;100871.78;;;31.58;48.10
79639;BME280;69114;49.108;8.280;2023-08-20T10:46:26;100875.69;;;32.04;46.85
79639;BME280;69114;49.108;8.280;2023-08-20T10:48:54;100866.44;;;31.76;46.79
79639;BME280;69114;49.108;8.280;2023-08-20T10:54:09;100869.34;;;32.29;42.87
79639;BME280;69114;49.108;8.280;2023-08-20T11:01:46;100865.94;;;32.50;42.28
79639;BME280;69114;49.108;8.280;2023-08-20T11:04:13;100856.94;;;32.48;40.90
79639;BME280;69114;49.108;8.280;2023-08-20T11:06:40;100857.13;;;32.41;39.90
79639;BME280;69114;49.108;8.280;2023-08-20T11:09:06;100860.38;;;32.43;43.43
79639;BME280;69114;49.108;8.280;2023-08-20T11:11:32;100862.19;;;32.53;41.57
79639;BME280;69114;49.108;8.280;2023-08-20T11:14:04;100856.81;;;33.01;41.36
79639;BME280;69114;49.108;8.280;2023-08-20T11:16:30;100851.84;;;32.85;41.77
79639;BME280;69114;49.108;8.280;2023-08-20T11:18:56;100856.25;;;33.06;39.76
79639;BME280;69114;49.108;8.280;2023-08-20T11:21:22;100851.59;;;33.25;38.46
79639;BME280;69114;49.108;8.280;2023-08-20T11:23:47;100848.91;;;32.72;38.65
79639;BME280;69114;49.108;8.280;2023-08-20T11:26:12;100855.28;;;33.54;40.17
79639;BME280;69114;49.108;8.280;2023-08-20T11:28:38;100853.16;;;34.35;36.22
79639;BME280;69114;49.108;8.280;2023-08-20T11:31:03;100856.75;;;34.52;34.54
79639;BME280;69114;49.108;8.280;2023-08-20T11:33:29;100854.88;;;35.05;34.50
79639;BME280;69114;49.108;8.280;2023-08-20T11:35:54;100853.41;;;35.45;34.90
79639;BME280;69114;49.108;8.280;2023-08-20T11:38:22;100847.53;;;35.48;35.23
79639;BME280;69114;49.108;8.280;2023-08-20T11:40:48;100847.06;;;35.81;34.54
79639;BME280;69114;49.108;8.280;2023-08-20T11:43:13;100848.72;;;35.38;35.85
79639;BME280;69114;49.108;8.280;2023-08-20T11:45:46;100847.19;;;35.99;33.91
79639;BME280;69114;49.108;8.280;2023-08-20T11:48:12;100838.56;;;36.27;34.07
79639;BME280;69114;49.108;8.280;2023-08-20T11:50:37;100835.47;;;36.61;33.29
79639;BME280;69114;49.108;8.280;2023-08-20T11:53:03;100834.25;;;36.40;33.29
79639;BME280;69114;49.108;8.280;2023-08-20T11:55:29;100839.63;;;35.71;34.22
79639;BME280;69114;49.108;8.280;2023-08-20T11:57:55;100838.03;;;36.59;33.37
79639;BME280;69114;49.108;8.280;2023-08-20T12:00:28;100840.66;;;36.76;30.79
79639;BME280;69114;49.108;8.280;2023-08-20T12:02:54;100826.44;;;36.78;33.39
79639;BME280;69114;49.108;8.280;2023-08-20T12:05:21;100821.88;;;35.69;34.16
79639;BME280;69114;49.108;8.280;2023-08-20T12:07:56;100825.84;;;35.18;35.41
79639;BME280;69114;49.108;8.280;2023-08-20T12:10:23;100826.81;;;35.90;33.67
79639;BME280;69114;49.108;8.280;2023-08-20T12:12:49;100826.66;;;36.25;32.52
79639;BME280;69114;49.108;8.280;2023-08-20T12:15:15;100822.22;;;34.70;32.87
79639;BME280;69114;49.108;8.280;2023-08-20T12:17:40;100823.94;;;33.95;35.73
79639;BME280;69114;49.108;8.280;2023-08-20T12:20:06;100824.34;;;34.31;35.59
79639;BME280;69114;49.108;8.280;2023-08-20T12:22:40;100817.72;;;35.79;32.83
79639;BME280;69114;49.108;8.280;2023-08-20T12:25:06;100815.81;;;36.56;31.21
79639;BME280;69114;49.108;8.280;2023-08-20T12:27:32;100812.44;;;36.17;32.50
79639;BME280;69114;49.108;8.280;2023-08-20T12:29:57;100803.31;;;36.28;31.12
79639;BME280;69114;49.108;8.280;2023-08-20T12:32:22;100797.59;;;37.38;29.32
79639;BME280;69114;49.108;8.280;2023-08-20T12:34:48;100806.75;;;36.45;29.98
79639;BME280;69114;49.108;8.280;2023-08-20T12:37:13;100806.63;;;37.40;29.65
79639;BME280;69114;49.108;8.280;2023-08-20T12:39:38;100789.88;;;37.78;28.06
79639;BME280;69114;49.108;8.280;2023-08-20T12:42:04;100803.22;;;38.84;27.38
79639;BME280;69114;49.108;8.280;2023-08-20T12:44:29;100799.00;;;38.37;29.10
79639;BME280;69114;49.108;8.280;2023-08-20T12:46:54;100791.13;;;37.25;28.46
79639;BME280;69114;49.108;8.280;2023-08-20T12:49:20;100786.34;;;35.46;30.80
79639;BME280;69114;49.108;8.280;2023-08-20T12:51:45;100792.69;;;35.94;30.05
79639;BME280;69114;49.108;8.280;2023-08-20T12:54:11;100789.41;;;36.91;30.94
79639;BME280;69114;49.108;8.280;2023-08-20T12:56:36;100787.28;;;37.19;29.71
79639;BME280;69114;49.108;8.280;2023-08-20T12:59:01;100778.31;;;38.35;28.49
79639;BME280;69114;49.108;8.280;2023-08-20T13:01:28;100785.88;;;38.65;28.58
79639;BME280;69114;49.108;8.280;2023-08-20T13:03:53;100789.72;;;38.14;26.93
79639;BME280;69114;49.108;8.280;2023-08-20T13:06:19;100786.66;;;37.85;27.90
79639;BME280;69114;49.108;8.280;2023-08-20T13:08:45;100782.84;;;38.27;25.31